Time;durP1;ratioP1;P1;durP2;ratioP2;P2;SDS_P1;SDS_P2;PMS_P1;PMS_P2;Temp;Humidity;BMP_temperature;BMP_pressure;BME280_temperature;BME280_humidity;BME280_pressure;Samples;Min_cycle;Max_cycle;Signal;HPM_P1;HPM_P2
2021/01/27 00:01:17;;;;;;;8.95;5.53;;;;;;;1.62;90.69;100686.00;626300;224;32849;-75
2021/01/27 00:03:44;;;;;;;6.43;5.20;;;;;;;1.50;91.09;100687.43;635802;225;23766;-75
2021/01/27 00:06:12;;;;;;;7.35;4.75;;;;;;;1.83;89.54;100682.80;624597;225;32850;-78
2021/01/27 00:08:40;;;;;;;5.27;3.90;;;;;;;1.78;89.99;100682.58;623491;229;23681;-76
2021/01/27 00:11:08;;;;;;;5.60;4.40;;;;;;;2.11;88.96;100676.63;619974;229;43636;-76
2021/01/27 00:13:36;;;;;;;6.63;5.20;;;;;;;1.94;88.94;100671.55;626308;229;23673;-76
2021/01/27 00:16:04;;;;;;;6.30;4.20;;;;;;;1.96;89.51;100669.72;624592;225;24797;-76
2021/01/27 00:18:32;;;;;;;5.97;4.00;;;;;;;1.78;89.34;100653.09;628845;228;24852;-76
2021/01/27 00:21:00;;;;;;;5.37;4.00;;;;;;;1.83;89.55;100666.98;629051;227;24842;-76
2021/01/27 00:23:28;;;;;;;5.60;3.90;;;;;;;1.68;90.49;100668.56;626185;229;24795;-76
2021/01/27 00:25:56;;;;;;;6.58;4.40;;;;;;;2.23;88.79;100650.78;620019;225;32648;-76
2021/01/27 00:28:24;;;;;;;7.20;4.77;;;;;;;1.86;89.33;100644.20;625655;228;23668;-76
2021/01/27 00:30:53;;;;;;;5.40;4.67;;;;;;;1.74;89.77;100643.91;626784;228;24796;-76
2021/01/27 00:33:21;;;;;;;5.60;4.23;;;;;;;1.67;89.95;100644.29;625966;229;24797;-76
2021/01/27 00:35:49;;;;;;;4.50;3.93;;;;;;;1.53;90.01;100642.42;640225;221;24850;-78
2021/01/27 00:38:17;;;;;;;6.27;4.13;;;;;;;1.61;90.38;100640.77;637922;224;24812;-76
2021/01/27 00:40:45;;;;;;;5.75;4.30;;;;;;;2.01;88.14;100617.75;633146;224;32597;-77
2021/01/27 00:43:12;;;;;;;6.53;4.33;;;;;;;1.53;89.51;100620.64;639686;224;23693;-76
2021/01/27 00:45:40;;;;;;;6.20;4.27;;;;;;;1.63;89.76;100627.42;637962;221;24821;-76
2021/01/27 00:48:08;;;;;;;9.70;4.37;;;;;;;1.56;89.87;100626.91;625842;226;24839;-76
2021/01/27 00:50:36;;;;;;;5.90;4.30;;;;;;;1.61;89.89;100621.09;621572;229;24805;-76
2021/01/27 00:53:04;;;;;;;7.20;4.30;;;;;;;1.49;90.10;100623.81;625293;229;24805;-76
2021/01/27 00:55:33;;;;;;;9.13;4.90;;;;;;;1.35;90.63;100621.57;637642;221;24801;-76
2021/01/27 00:58:01;;;;;;;6.60;5.05;;;;;;;1.88;89.72;100621.41;620636;227;32699;-76
2021/01/27 01:00:29;;;;;;;5.72;4.40;;;;;;;1.94;88.10;100610.81;620981;228;33012;-76
2021/01/27 01:02:56;;;;;;;7.33;5.10;;;;;;;2.13;87.62;100615.83;633436;224;34276;-76
2021/01/27 01:05:24;;;;;;;6.37;4.70;;;;;;;2.31;86.65;100601.17;632374;221;32519;-75
2021/01/27 01:07:52;;;;;;;5.90;4.80;;;;;;;1.72;88.47;100623.11;627852;226;23725;-76
2021/01/27 01:10:22;;;;;;;6.20;4.37;;;;;;;1.50;89.32;100618.23;627881;227;24897;-76
2021/01/27 01:12:50;;;;;;;8.53;4.13;;;;;;;1.31;90.21;100621.36;627409;226;26048;-76
2021/01/27 01:15:18;;;;;;;8.00;5.08;;;;;;;1.89;87.72;100606.85;628271;224;32845;-76
2021/01/27 01:17:45;;;;;;;6.90;5.10;;;;;;;1.97;88.11;100602.98;626215;225;32809;-75
2021/01/27 01:20:14;;;;;;;7.97;4.90;;;;;;;1.61;89.09;100613.40;636622;225;23797;-75
2021/01/27 01:22:43;;;;;;;7.53;5.10;;;;;;;1.49;89.79;100612.73;636321;225;24924;-76
2021/01/27 01:25:12;;;;;;;5.87;4.40;;;;;;;1.39;90.56;100613.64;626293;224;24802;-76
2021/01/27 01:27:41;;;;;;;5.33;3.90;;;;;;;1.24;91.07;100609.73;627521;226;24844;-76
2021/01/27 01:30:12;;;;;;;7.28;5.00;;;;;;;1.68;89.28;100604.93;622313;227;33022;-76
2021/01/27 01:32:40;;;;;;;6.93;5.90;;;;;;;1.39;90.67;100606.41;627882;228;24828;-75
2021/01/27 01:35:09;;;;;;;6.57;4.80;;;;;;;1.27;90.98;100605.31;626354;225;24861;-76
2021/01/27 01:37:38;;;;;;;6.20;4.80;;;;;;;1.28;91.28;100599.28;627375;228;24870;-75
2021/01/27 01:40:06;;;;;;;6.80;4.50;;;;;;;1.23;91.02;100608.09;624357;229;27010;-76
2021/01/27 01:42:33;;;;;;;13.20;5.77;;;;;;;1.04;92.28;100619.23;625269;228;24933;-75
2021/01/27 01:45:01;;;;;;;7.22;5.17;;;;;;;1.24;92.25;100616.14;619668;226;33176;-76
2021/01/27 01:47:29;;;;;;;10.50;5.67;;;;;;;1.59;91.45;100598.56;623416;228;33360;-76
2021/01/27 01:49:57;;;;;;;9.73;5.30;;;;;;;1.34;91.66;100595.12;636516;225;23690;-76
2021/01/27 01:52:25;;;;;;;7.62;5.45;;;;;;;1.56;91.06;100583.34;632339;223;32818;-75
2021/01/27 01:54:53;;;;;;;7.45;5.40;;;;;;;1.71;90.44;100576.14;631991;222;32522;-75
2021/01/27 01:57:21;;;;;;;8.13;5.67;;;;;;;1.44;90.71;100591.66;637886;225;25246;-76
2021/01/27 01:59:51;;;;;;;8.43;5.70;;;;;;;1.85;89.43;100579.72;631563;225;32530;-75
2021/01/27 02:02:18;;;;;;;6.30;4.80;;;;;;;1.48;90.89;100586.73;637807;224;23644;-76
2021/01/27 02:04:47;;;;;;;7.92;5.12;;;;;;;1.56;90.38;100576.94;631917;221;32526;-76
2021/01/27 02:07:15;;;;;;;8.67;5.30;;;;;;;1.46;91.39;100581.70;633487;225;23696;-76
2021/01/27 02:09:43;;;;;;;7.77;4.90;;;;;;;1.29;91.36;100589.86;636542;224;24764;-76
2021/01/27 02:12:16;;;;;;;9.13;5.87;;;;;;;1.61;90.35;100572.39;633325;224;43361;-76
2021/01/27 02:14:50;;;;;;;7.00;5.20;;;;;;;0.94;92.49;100590.30;639578;220;23675;-75
2021/01/27 02:17:19;;;;;;;8.38;5.55;;;;;;;0.94;93.50;100583.45;628490;224;32604;-75
2021/01/27 02:20:10;;;;;;;8.43;6.13;;;;;;;0.65;95.37;100582.75;638449;222;28896;-76
2021/01/27 02:22:46;;;;;;;8.38;5.75;;;;;;;0.65;95.91;100590.42;633490;224;32615;-77
2021/01/27 02:25:26;;;;;;;6.57;5.67;;;;;;;0.65;96.96;100573.80;639540;220;23654;-77
2021/01/27 02:27:54;;;;;;;7.92;5.55;;;;;;;0.96;96.25;100570.13;631610;224;32573;-78
2021/01/27 02:30:29;;;;;;;9.75;6.37;;;;;;;1.04;94.55;100566.74;632609;225;32543;-77
2021/01/27 02:33:12;;;;;;;8.53;5.40;;;;;;;0.76;96.37;100581.34;637142;224;23716;-77
2021/01/27 02:35:40;;;;;;;7.20;5.60;;;;;;;1.12;95.58;100558.21;631787;221;32543;-78
2021/01/27 02:38:08;;;;;;;7.87;5.70;;;;;;;1.14;94.82;100567.13;637675;223;23711;-76
2021/01/27 02:40:36;;;;;;;7.22;6.00;;;;;;;1.03;95.16;100560.42;632194;225;32612;-76
2021/01/27 02:43:06;;;;;;;8.37;5.93;;;;;;;0.90;96.06;100562.75;637412;225;23676;-76
2021/01/27 02:45:35;;;;;;;8.73;5.78;;;;;;;0.97;95.53;100566.66;634178;220;32610;-75
2021/01/27 02:48:02;;;;;;;9.63;5.60;;;;;;;1.03;95.95;100567.65;638552;225;23711;-76
2021/01/27 02:50:31;;;;;;;8.05;6.00;;;;;;;1.54;95.05;100556.11;633562;224;32581;-76
2021/01/27 02:52:59;;;;;;;7.50;5.50;;;;;;;1.38;94.68;100559.92;637070;225;24327;-76
2021/01/27 02:55:27;;;;;;;9.48;6.45;;;;;;;1.85;93.20;100554.08;631686;221;32544;-76
2021/01/27 02:57:55;;;;;;;10.53;6.47;;;;;;;1.51;93.39;100546.85;636587;225;23703;-75
2021/01/27 03:00:25;;;;;;;10.23;7.23;;;;;;;1.43;94.03;100564.38;638566;223;25349;-76
2021/01/27 03:02:52;;;;;;;8.45;6.40;;;;;;;1.42;94.21;100554.58;633350;223;43262;-76
2021/01/27 03:05:20;;;;;;;8.97;6.30;;;;;;;1.14;95.38;100555.15;638389;220;23665;-75
2021/01/27 03:07:49;;;;;;;12.43;7.10;;;;;;;0.97;96.66;100554.30;638009;224;24768;-76
2021/01/27 03:10:17;;;;;;;12.47;6.70;;;;;;;0.99;97.36;100558.92;633579;225;25138;-75
2021/01/27 03:12:47;;;;;;;16.15;7.80;;;;;;;1.09;97.03;100553.25;632308;224;32610;-76
2021/01/27 03:15:15;;;;;;;12.57;7.40;;;;;;;1.01;97.46;100550.26;637336;221;23640;-75
2021/01/27 03:17:43;;;;;;;12.53;7.97;;;;;;;1.50;97.00;100550.33;630869;224;32613;-76
2021/01/27 03:20:13;;;;;;;14.13;7.53;;;;;;;1.35;96.82;100548.09;637010;225;23643;-76
2021/01/27 03:22:41;;;;;;;14.25;7.95;;;;;;;1.70;95.57;100541.16;632428;223;32583;-76
2021/01/27 03:25:10;;;;;;;12.13;7.70;;;;;;;1.40;96.31;100536.32;637469;221;26852;-75
2021/01/27 03:27:38;;;;;;;14.27;9.40;;;;;;;1.50;96.27;100531.10;637531;223;27951;-76
2021/01/27 03:30:07;;;;;;;78.20;38.40;;;;;;;1.45;96.63;100522.84;637647;224;24798;-76
2021/01/27 03:32:37;;;;;;;23.57;16.23;;;;;;;1.62;96.29;100523.23;637623;225;24774;-76
2021/01/27 03:35:06;;;;;;;15.28;10.82;;;;;;;1.78;94.64;100506.95;632529;221;32610;-75
2021/01/27 03:37:34;;;;;;;14.53;7.83;;;;;;;1.90;95.02;100506.76;637576;224;26842;-76
2021/01/27 03:40:02;;;;;;;15.03;12.40;;;;;;;1.88;94.51;100498.78;638298;223;27949;-76
2021/01/27 03:42:32;;;;;;;121.07;77.93;;;;;;;1.88;94.36;100510.31;636786;225;24917;-75
2021/01/27 03:45:00;;;;;;;36.70;25.80;;;;;;;1.54;95.11;100512.09;636879;221;24794;-76
2021/01/27 03:47:28;;;;;;;90.47;67.37;;;;;;;1.52;95.91;100513.91;638180;225;24759;-75
2021/01/27 03:49:56;;;;;;;23.23;15.67;;;;;;;1.45;96.30;100512.13;637259;223;25064;-74
2021/01/27 03:52:24;;;;;;;16.42;12.98;;;;;;;1.59;95.51;100507.56;631887;224;32733;-76
2021/01/27 03:54:54;;;;;;;16.40;13.03;;;;;;;1.73;95.51;100499.98;632478;220;32647;-76
2021/01/27 03:57:24;;;;;;;11.97;8.00;;;;;;;1.88;95.24;100495.76;638178;224;23997;-76
2021/01/27 03:59:52;;;;;;;11.17;7.50;;;;;;;1.76;95.11;100486.16;636985;225;24775;-75
2021/01/27 04:02:20;;;;;;;8.67;6.27;;;;;;;1.83;94.92;100485.36;638074;224;24759;-76
2021/01/27 04:04:47;;;;;;;9.93;6.13;;;;;;;2.00;94.44;100475.03;638404;220;25022;-75
2021/01/27 04:07:15;;;;;;;8.00;5.90;;;;;;;1.79;94.86;100474.45;633192;225;24748;-76
2021/01/27 04:09:43;;;;;;;9.33;6.27;;;;;;;1.79;94.69;100468.86;637015;225;24761;-76
2021/01/27 04:12:11;;;;;;;12.40;6.20;;;;;;;1.77;94.91;100461.72;637957;225;24759;-76
2021/01/27 04:14:39;;;;;;;9.20;5.77;;;;;;;1.68;94.71;100453.23;637949;224;25115;-76
2021/01/27 04:17:14;;;;;;;12.30;6.70;;;;;;;2.11;94.08;100451.34;632821;220;32955;-76
2021/01/27 04:19:42;;;;;;;11.83;7.35;;;;;;;2.02;93.50;100455.25;631913;225;32617;-78
2021/01/27 04:22:11;;;;;;;12.10;7.30;;;;;;;2.00;93.65;100454.06;637386;224;26871;-76
2021/01/27 04:24:39;;;;;;;10.47;6.20;;;;;;;1.95;94.04;100444.95;638502;224;24746;-76
2021/01/27 04:27:07;;;;;;;9.20;6.40;;;;;;;1.86;94.48;100448.86;636097;221;24797;-76
2021/01/27 04:29:34;;;;;;;10.73;6.30;;;;;;;2.03;93.95;100455.62;636733;225;24771;-76
2021/01/27 04:32:02;;;;;;;11.07;6.50;;;;;;;2.08;93.65;100452.34;638040;224;24787;-76
2021/01/27 04:34:30;;;;;;;12.43;5.80;;;;;;;1.93;93.58;100438.62;639173;223;24799;-76
2021/01/27 04:36:59;;;;;;;12.10;6.13;;;;;;;1.84;93.56;100448.13;638951;220;24784;-76
2021/01/27 04:39:27;;;;;;;9.13;6.47;;;;;;;1.56;95.05;100453.91;639151;224;24765;-76
2021/01/27 04:41:55;;;;;;;10.97;6.57;;;;;;;1.41;95.76;100451.72;638798;223;24775;-76
2021/01/27 04:44:23;;;;;;;12.40;7.60;;;;;;;1.29;97.09;100457.93;638029;224;24795;-76
2021/01/27 04:46:56;;;;;;;11.53;6.57;;;;;;;1.25;97.83;100454.68;638884;221;24759;-75
2021/01/27 04:49:25;;;;;;;8.63;6.80;;;;;;;1.37;96.95;100439.12;637881;223;28010;-76
2021/01/27 04:51:53;;;;;;;8.83;5.73;;;;;;;1.59;96.91;100429.39;636917;224;24760;-76
2021/01/27 04:54:28;;;;;;;9.80;6.90;;;;;;;1.45;95.80;100428.03;637119;225;24759;-75
2021/01/27 04:57:21;;;;;;;7.80;6.20;;;;;;;1.44;95.31;100418.69;638740;220;25062;-75
2021/01/27 04:59:58;;;;;;;8.55;6.70;;;;;;;1.51;96.09;100420.45;633182;222;43270;-77
2021/01/27 05:02:31;;;;;;;11.23;6.43;;;;;;;1.49;95.39;100414.13;637840;225;26869;-77
2021/01/27 05:05:03;;;;;;;10.68;6.50;;;;;;;1.72;95.09;100415.00;631363;221;32596;-76
2021/01/27 05:07:31;;;;;;;12.27;6.93;;;;;;;1.81;94.46;100416.67;639134;224;23629;-74
2021/01/27 05:09:59;;;;;;;7.83;6.50;;;;;;;2.04;93.26;100411.11;631484;224;32564;-74
2021/01/27 05:12:27;;;;;;;7.07;5.47;;;;;;;1.95;93.15;100398.79;639750;223;25869;-74
2021/01/27 05:14:55;;;;;;;11.70;6.80;;;;;;;1.90;92.96;100395.20;639964;221;24770;-74
2021/01/27 05:17:23;;;;;;;12.90;5.90;;;;;;;2.19;92.96;100394.84;641359;224;24809;-75
2021/01/27 05:19:51;;;;;;;8.70;5.73;;;;;;;2.18;92.09;100389.35;638013;225;24781;-74
2021/01/27 05:22:19;;;;;;;9.77;5.60;;;;;;;2.12;92.05;100387.14;637918;224;24767;-74
2021/01/27 05:24:47;;;;;;;7.53;5.43;;;;;;;1.94;92.23;100400.98;639490;220;24760;-75
2021/01/27 05:27:16;;;;;;;10.80;5.60;;;;;;;2.15;92.10;100395.95;637615;225;24755;-74
2021/01/27 05:29:44;;;;;;;9.03;5.80;;;;;;;2.19;91.76;100394.84;636337;225;27152;-74
2021/01/27 05:32:11;;;;;;;10.32;6.28;;;;;;;2.46;90.23;100383.91;630688;223;32541;-76
2021/01/27 05:34:39;;;;;;;12.50;6.53;;;;;;;2.00;91.90;100384.81;637513;225;23680;-75
2021/01/27 05:37:09;;;;;;;8.63;6.03;;;;;;;2.03;92.59;100382.07;636650;221;24776;-75
2021/01/27 05:39:37;;;;;;;10.60;5.43;;;;;;;2.00;92.29;100370.70;638589;224;27020;-75
2021/01/27 05:42:06;;;;;;;12.53;7.40;;;;;;;2.13;92.01;100361.86;636447;224;24776;-75
2021/01/27 05:44:34;;;;;;;8.97;6.17;;;;;;;2.18;91.53;100359.84;637734;223;26938;-75
2021/01/27 05:47:20;;;;;;;7.93;5.70;;;;;;;2.09;91.58;100356.52;640240;220;24763;-74
2021/01/27 05:49:48;;;;;;;7.80;5.33;;;;;;;1.83;92.77;100366.13;638540;223;26916;-74
2021/01/27 05:52:16;;;;;;;8.53;5.90;;;;;;;1.65;93.86;100373.11;633527;224;24742;-74
2021/01/27 05:54:44;;;;;;;10.90;6.20;;;;;;;1.62;94.46;100374.57;637207;224;24783;-74
2021/01/27 05:57:12;;;;;;;8.77;5.87;;;;;;;1.62;94.50;100370.27;638163;224;24763;-74
2021/01/27 05:59:40;;;;;;;6.90;6.20;;;;;;;1.62;94.79;100366.42;636710;224;24767;-76
2021/01/27 06:02:08;;;;;;;10.70;6.80;;;;;;;1.73;94.30;100370.52;637170;224;24797;-76
2021/01/27 06:04:36;;;;;;;11.93;6.80;;;;;;;1.95;93.78;100358.58;638421;225;24773;-76
2021/01/27 06:07:04;;;;;;;11.30;6.93;;;;;;;2.13;92.98;100360.58;638353;221;24760;-75
2021/01/27 06:09:33;;;;;;;25.13;16.53;;;;;;;1.96;92.97;100354.27;637146;223;24803;-76
2021/01/27 06:12:01;;;;;;;90.23;50.10;;;;;;;1.87;93.23;100354.81;638496;224;24777;-76
2021/01/27 06:14:29;;;;;;;24.10;16.70;;;;;;;2.02;92.36;100348.36;638726;223;24768;-76
2021/01/27 06:16:57;;;;;;;41.17;25.43;;;;;;;1.98;92.34;100335.35;636710;221;27030;-76
2021/01/27 06:19:25;;;;;;;25.20;16.30;;;;;;;2.27;91.49;100329.82;638098;225;24770;-76
2021/01/27 06:22:06;;;;;;;20.67;15.83;;;;;;;2.11;91.55;100326.92;636799;225;24779;-76
2021/01/27 06:24:55;;;;;;;15.00;12.00;;;;;;;2.16;91.72;100321.09;636629;224;24990;-76
2021/01/27 06:27:44;;;;;;;25.50;22.82;;;;;;;2.36;90.88;100326.70;628267;225;33492;-76
2021/01/27 06:30:17;;;;;;;14.00;11.00;;;;;;;2.14;90.90;100325.03;637635;224;23935;-76
2021/01/27 06:32:53;;;;;;;16.17;14.47;;;;;;;2.37;90.17;100318.08;631921;225;43697;-76
2021/01/27 06:35:28;;;;;;;15.50;11.03;;;;;;;2.30;90.66;100310.39;636149;221;23686;-76
2021/01/27 06:38:01;;;;;;;11.90;10.07;;;;;;;2.27;90.37;100315.71;637570;225;24819;-76
2021/01/27 06:40:35;;;;;;;8.60;6.30;;;;;;;2.18;90.04;100307.25;636726;224;24751;-76
2021/01/27 06:43:08;;;;;;;12.82;8.65;;;;;;;2.65;89.45;100304.89;633226;225;32549;-77
2021/01/27 06:45:37;;;;;;;12.63;6.77;;;;;;;2.16;90.34;100315.50;636212;221;26832;-74
2021/01/27 06:48:25;;;;;;;8.50;6.30;;;;;;;2.36;90.39;100316.43;638091;223;25011;-76
2021/01/27 06:51:06;;;;;;;7.70;5.80;;;;;;;2.30;89.79;100310.39;636500;225;24763;-75
2021/01/27 06:53:43;;;;;;;8.47;5.60;;;;;;;2.31;89.96;100312.03;638096;225;24747;-74
2021/01/27 06:56:36;;;;;;;6.73;4.67;;;;;;;2.24;90.13;100318.43;638185;220;24779;-74
2021/01/27 06:59:09;;;;;;;8.03;4.93;;;;;;;2.25;90.16;100312.84;637872;224;27965;-76
2021/01/27 07:02:03;;;;;;;7.05;5.03;;;;;;;2.71;88.72;100312.70;632334;224;32532;-77
2021/01/27 07:04:42;;;;;;;5.13;4.37;;;;;;;2.62;89.03;100307.64;633090;224;23665;-77
2021/01/27 07:07:22;;;;;;;11.13;4.63;;;;;;;2.37;89.69;100314.23;638486;221;25963;-75
2021/01/27 07:09:59;;;;;;;5.80;4.30;;;;;;;2.21;90.41;100315.23;638701;223;26930;-74
2021/01/27 07:12:27;;;;;;;6.67;4.50;;;;;;;2.41;90.13;100326.91;637793;222;25088;-74
2021/01/27 07:15:03;;;;;;;5.37;4.20;;;;;;;2.30;90.74;100336.51;637339;221;24770;-74
2021/01/27 07:17:44;;;;;;;11.53;5.10;;;;;;;2.24;90.55;100331.26;637846;225;24760;-74
2021/01/27 07:20:16;;;;;;;8.00;5.40;;;;;;;2.30;90.54;100332.20;638830;224;24771;-77
2021/01/27 07:22:46;;;;;;;8.30;5.20;;;;;;;2.23;90.82;100334.73;637090;223;25019;-76
2021/01/27 07:25:14;;;;;;;7.67;5.00;;;;;;;2.21;90.66;100331.90;636966;221;24760;-77
2021/01/27 07:27:42;;;;;;;7.57;5.43;;;;;;;2.15;91.39;100329.25;637778;225;29053;-77
2021/01/27 07:30:12;;;;;;;8.87;4.83;;;;;;;2.00;91.54;100337.83;638046;225;24788;-77
2021/01/27 07:32:40;;;;;;;6.27;4.73;;;;;;;2.20;92.05;100347.75;636601;223;25103;-77
2021/01/27 07:35:09;;;;;;;5.30;4.50;;;;;;;2.28;91.40;100355.84;636539;222;24796;-77
2021/01/27 07:37:38;;;;;;;6.83;5.27;;;;;;;1.94;92.49;100375.34;639460;224;24745;-76
2021/01/27 07:40:08;;;;;;;7.93;4.63;;;;;;;2.07;92.78;100371.17;637419;224;24747;-74
2021/01/27 07:42:37;;;;;;;6.60;4.87;;;;;;;2.08;92.86;100368.97;637993;225;24803;-74
2021/01/27 07:45:06;;;;;;;7.72;5.20;;;;;;;2.26;91.92;100361.98;632670;220;32530;-73
2021/01/27 07:47:46;;;;;;;6.00;4.97;;;;;;;2.12;93.03;100365.34;638525;223;23973;-74
2021/01/27 07:50:15;;;;;;;7.60;5.50;;;;;;;2.31;92.73;100359.51;631145;225;32541;-74
2021/01/27 07:52:47;;;;;;;6.80;4.93;;;;;;;2.16;92.71;100364.25;636776;225;23661;-75
2021/01/27 07:55:16;;;;;;;8.53;5.70;;;;;;;2.01;93.22;100366.41;638103;221;24805;-74
2021/01/27 07:57:46;;;;;;;9.18;5.95;;;;;;;2.07;94.09;100367.32;632935;225;32561;-76
2021/01/27 08:00:16;;;;;;;9.70;6.10;;;;;;;2.01;94.86;100362.55;636356;224;23642;-76
2021/01/27 08:02:56;;;;;;;5.63;4.97;;;;;;;1.77;96.50;100365.58;638530;225;24767;-76
2021/01/27 08:05:24;;;;;;;9.20;6.13;;;;;;;1.62;97.44;100366.42;632837;221;24764;-76
2021/01/27 08:08:00;;;;;;;11.43;6.30;;;;;;;1.86;97.94;100374.96;631939;223;32599;-77
2021/01/27 08:10:28;;;;;;;8.30;5.90;;;;;;;1.66;98.21;100365.34;638368;224;26809;-77
2021/01/27 08:12:56;;;;;;;11.05;7.00;;;;;;;2.15;97.37;100372.86;633941;223;32529;-77
2021/01/27 08:15:34;;;;;;;9.40;7.17;;;;;;;1.83;98.29;100368.70;638808;221;25775;-77
2021/01/27 08:18:04;;;;;;;10.50;6.50;;;;;;;1.66;99.41;100372.20;637445;224;24766;-76
2021/01/27 08:20:32;;;;;;;12.78;8.20;;;;;;;1.98;98.40;100371.25;632484;224;32580;-77
2021/01/27 08:23:01;;;;;;;10.43;6.83;;;;;;;1.68;99.83;100373.77;638109;224;23666;-76
2021/01/27 08:25:39;;;;;;;11.43;7.17;;;;;;;1.83;100.00;100373.41;631466;221;32593;-76
2021/01/27 08:28:23;;;;;;;10.33;6.47;;;;;;;1.68;100.00;100363.97;636163;225;23648;-76
2021/01/27 08:31:02;;;;;;;13.03;8.18;;;;;;;1.92;100.00;100354.91;632213;223;32537;-76
2021/01/27 08:33:41;;;;;;;9.50;7.10;;;;;;;1.75;100.00;100352.02;637327;225;24682;-76
2021/01/27 08:36:10;;;;;;;12.03;7.40;;;;;;;1.34;100.00;100343.22;637365;221;24753;-76
2021/01/27 08:38:41;;;;;;;12.03;8.80;;;;;;;1.52;100.00;100343.94;631656;224;43231;-76
2021/01/27 08:41:12;;;;;;;9.03;7.23;;;;;;;1.36;100.00;100324.75;639563;225;23664;-76
2021/01/27 08:43:40;;;;;;;11.65;8.50;;;;;;;1.69;100.00;100330.59;633151;225;32622;-76
2021/01/27 08:46:18;;;;;;;12.73;8.23;;;;;;;1.37;100.00;100334.91;637875;220;23985;-74
2021/01/27 08:48:48;;;;;;;14.40;9.60;;;;;;;1.56;100.00;100318.09;632621;223;32595;-76
2021/01/27 08:51:27;;;;;;;8.47;6.50;;;;;;;1.34;100.00;100324.83;632139;225;25829;-74
2021/01/27 08:53:56;;;;;;;13.78;9.88;;;;;;;1.61;100.00;100316.08;633167;223;32620;-76
2021/01/27 08:56:23;;;;;;;13.20;7.80;;;;;;;1.45;100.00;100314.00;639140;220;24803;-76
2021/01/27 08:59:19;;;;;;;12.07;8.58;;;;;;;1.48;100.00;100321.05;633859;224;32594;-76
2021/01/27 09:01:54;;;;;;;9.80;6.60;;;;;;;1.54;100.00;100317.31;637561;225;23662;-74
2021/01/27 09:04:34;;;;;;;11.22;8.40;;;;;;;1.77;100.00;100313.02;633215;225;32599;-74
2021/01/27 09:07:05;;;;;;;9.73;7.33;;;;;;;1.54;100.00;100310.08;626506;226;23714;-76
2021/01/27 09:09:38;;;;;;;12.23;8.70;;;;;;;1.77;100.00;100311.73;622723;227;32855;-76
2021/01/27 09:12:05;;;;;;;9.63;7.40;;;;;;;1.60;100.00;100310.59;624995;229;24808;-77
2021/01/27 09:14:33;;;;;;;9.57;7.80;;;;;;;1.89;100.00;100307.66;620537;229;43514;-77
2021/01/27 09:17:01;;;;;;;10.03;7.30;;;;;;;1.65;100.00;100298.78;626260;225;24868;-77
2021/01/27 09:19:29;;;;;;;11.60;7.78;;;;;;;2.16;100.00;100300.56;634137;222;32779;-77
2021/01/27 09:22:00;;;;;;;10.90;8.80;;;;;;;2.07;100.00;100295.05;639325;224;23940;-74
2021/01/27 09:24:28;;;;;;;11.57;8.48;;;;;;;2.41;100.00;100294.37;636183;223;32737;-74
2021/01/27 09:26:56;;;;;;;9.30;6.70;;;;;;;2.04;100.00;100291.84;625709;225;23711;-74
2021/01/27 09:29:25;;;;;;;9.63;7.50;;;;;;;2.42;100.00;100290.88;632146;224;32681;-74
2021/01/27 09:31:52;;;;;;;10.87;6.67;;;;;;;2.29;100.00;100292.06;627687;229;23896;-74
2021/01/27 09:34:23;;;;;;;9.18;7.00;;;;;;;2.20;99.47;100302.03;623318;228;32877;-74
2021/01/27 09:36:51;;;;;;;7.73;6.20;;;;;;;2.04;100.00;100299.53;614792;229;23738;-74
2021/01/27 09:39:26;;;;;;;7.87;6.60;;;;;;;2.40;99.61;100299.59;620522;223;32701;-74
2021/01/27 09:41:53;;;;;;;5.83;5.23;;;;;;;2.08;100.00;100289.45;626280;228;23693;-74
2021/01/27 09:44:23;;;;;;;5.80;4.87;;;;;;;2.23;100.00;100291.58;625273;228;25019;-74
2021/01/27 09:46:51;;;;;;;6.53;5.10;;;;;;;2.15;100.00;100285.63;637706;220;24854;-74
2021/01/27 09:49:19;;;;;;;5.67;4.30;;;;;;;2.16;100.00;100284.72;634139;225;24848;-74
2021/01/27 09:51:51;;;;;;;5.00;4.50;;;;;;;1.86;100.00;100282.20;631189;225;32840;-74
2021/01/27 09:54:19;;;;;;;5.00;4.20;;;;;;;1.85;100.00;100276.70;624679;229;26892;-74
2021/01/27 09:56:47;;;;;;;5.15;4.40;;;;;;;2.21;100.00;100253.19;621924;225;32855;-74
2021/01/27 09:59:15;;;;;;;4.70;4.20;;;;;;;2.07;100.00;100248.05;626474;228;23750;-74
2021/01/27 10:01:45;;;;;;;6.20;4.40;;;;;;;2.43;100.00;100273.74;622287;228;33878;-74
2021/01/27 10:04:13;;;;;;;4.47;4.07;;;;;;;2.38;100.00;100281.69;628033;228;23707;-76
2021/01/27 10:06:41;;;;;;;4.67;3.60;;;;;;;2.36;99.66;100287.38;625357;225;25015;-74
2021/01/27 10:09:14;;;;;;;4.10;3.70;;;;;;;2.51;99.78;100289.48;632910;223;32682;-77
2021/01/27 10:11:42;;;;;;;3.60;3.30;;;;;;;2.62;99.96;100276.84;639398;224;23749;-74
2021/01/27 10:14:10;;;;;;;3.50;3.20;;;;;;;2.49;98.44;100265.66;634351;224;32771;-76
2021/01/27 10:16:49;;;;;;;3.40;3.08;;;;;;;2.77;98.53;100287.45;634293;221;32699;-76
2021/01/27 10:19:20;;;;;;;3.27;3.00;;;;;;;2.35;99.43;100277.58;626532;228;23711;-74
2021/01/27 10:21:48;;;;;;;4.10;3.00;;;;;;;2.28;99.13;100291.70;626742;228;25157;-74
2021/01/27 10:24:39;;;;;;;3.07;2.77;;;;;;;2.45;100.00;100290.70;627145;227;24797;-74
2021/01/27 10:27:07;;;;;;;2.47;2.27;;;;;;;2.24;99.88;100299.19;627942;225;24889;-74
2021/01/27 10:29:36;;;;;;;3.30;2.87;;;;;;;2.22;100.00;100297.63;620153;228;32698;-74
2021/01/27 10:32:31;;;;;;;2.80;2.60;;;;;;;2.27;100.00;100287.48;625991;228;23683;-74
2021/01/27 10:34:59;;;;;;;3.83;3.53;;;;;;;2.08;100.00;100279.20;632147;221;24839;-75
2021/01/27 10:37:31;;;;;;;3.20;2.60;;;;;;;2.17;100.00;100299.66;638321;225;26155;-76
2021/01/27 10:40:08;;;;;;;3.60;3.30;;;;;;;2.01;100.00;100292.02;639600;223;24804;-74
2021/01/27 10:42:36;;;;;;;3.50;3.20;;;;;;;2.63;100.00;100291.33;632572;224;32684;-76
2021/01/27 10:45:13;;;;;;;2.90;2.60;;;;;;;2.47;100.00;100288.03;626750;225;23739;-77
2021/01/27 10:47:41;;;;;;;3.35;3.05;;;;;;;2.89;98.53;100276.90;623309;227;32876;-77
2021/01/27 10:50:10;;;;;;;3.80;3.50;;;;;;;3.09;97.05;100274.36;631203;223;33016;-77
2021/01/27 10:52:38;;;;;;;3.57;3.27;;;;;;;2.69;97.49;100288.40;638480;223;23739;-77
2021/01/27 10:55:08;;;;;;;3.13;2.93;;;;;;;2.43;98.21;100293.81;625897;225;25100;-74
2021/01/27 10:57:36;;;;;;;4.15;3.50;;;;;;;2.51;98.27;100289.03;634195;223;32711;-76
2021/01/27 11:00:05;;;;;;;4.13;3.40;;;;;;;2.52;98.80;100281.69;638445;224;23710;-76
2021/01/27 11:02:33;;;;;;;3.53;3.20;;;;;;;2.77;98.41;100277.65;640096;224;26976;-76
2021/01/27 11:05:01;;;;;;;5.30;4.53;;;;;;;2.84;98.12;100276.37;641305;221;24807;-74
2021/01/27 11:07:29;;;;;;;6.63;5.10;;;;;;;3.01;98.26;100271.47;639476;223;24773;-76
2021/01/27 11:09:57;;;;;;;5.20;4.70;;;;;;;2.98;96.75;100259.18;620539;227;32672;-76
2021/01/27 11:12:25;;;;;;;4.67;3.93;;;;;;;3.07;97.67;100258.22;639779;223;23707;-76
2021/01/27 11:14:53;;;;;;;4.03;3.70;;;;;;;3.07;97.88;100255.66;638945;224;25163;-77
2021/01/27 11:17:21;;;;;;;4.57;3.93;;;;;;;3.05;97.34;100257.50;625161;229;24802;-76
2021/01/27 11:19:49;;;;;;;3.30;3.00;;;;;;;2.69;97.78;100280.70;626845;228;24850;-76
2021/01/27 11:22:17;;;;;;;2.60;2.40;;;;;;;2.76;98.39;100290.95;624377;229;24828;-76
2021/01/27 11:24:44;;;;;;;3.23;2.93;;;;;;;2.71;98.18;100267.77;638899;224;25106;-76
2021/01/27 11:27:12;;;;;;;3.60;3.30;;;;;;;2.89;97.49;100267.45;625902;224;26875;-77
2021/01/27 11:29:40;;;;;;;3.77;3.47;;;;;;;3.17;96.25;100254.16;631649;224;32697;-76
2021/01/27 11:32:08;;;;;;;4.20;3.80;;;;;;;2.73;98.04;100261.61;638663;224;23667;-74
2021/01/27 11:34:36;;;;;;;3.00;2.77;;;;;;;2.82;98.07;100257.66;638551;224;24816;-73
2021/01/27 11:37:04;;;;;;;4.10;3.27;;;;;;;2.45;99.38;100262.46;636897;220;24758;-74
2021/01/27 11:39:32;;;;;;;4.10;3.52;;;;;;;2.81;98.81;100247.83;620244;228;32712;-74
2021/01/27 11:42:00;;;;;;;3.77;3.47;;;;;;;2.95;99.15;100236.23;640294;223;23692;-74
2021/01/27 11:44:28;;;;;;;3.83;3.03;;;;;;;2.71;98.59;100221.55;627862;227;24799;-74